sensor_id;sensor_type;location;lat;lon;timestamp;temperature;humidity
66213;SHT31;53015;50.046;8.238;2022-08-05T00:01:20;25.87;62.60
66213;SHT31;53015;50.046;8.238;2022-08-05T00:03:49;25.75;63.39
66213;SHT31;53015;50.046;8.238;2022-08-05T00:06:15;25.70;63.85
66213;SHT31;53015;50.046;8.238;2022-08-05T00:08:41;25.64;64.19
66213;SHT31;53015;50.046;8.238;2022-08-05T00:11:09;25.59;64.78
66213;SHT31;53015;50.046;8.238;2022-08-05T00:13:37;25.46;65.44
66213;SHT31;53015;50.046;8.238;2022-08-05T00:16:03;25.35;66.07
66213;SHT31;53015;50.046;8.238;2022-08-05T00:18:29;25.29;66.52
66213;SHT31;53015;50.046;8.238;2022-08-05T00:20:54;25.26;66.65
66213;SHT31;53015;50.046;8.238;2022-08-05T00:23:22;25.22;67.01
66213;SHT31;53015;50.046;8.238;2022-08-05T00:25:49;25.16;67.34
66213;SHT31;53015;50.046;8.238;2022-08-05T00:28:15;25.16;67.53
66213;SHT31;53015;50.046;8.238;2022-08-05T00:30:40;25.09;67.08
66213;SHT31;53015;50.046;8.238;2022-08-05T00:33:06;25.01;67.84
66213;SHT31;53015;50.046;8.238;2022-08-05T00:35:32;24.54;72.41
66213;SHT31;53015;50.046;8.238;2022-08-05T00:37:57;23.96;74.67
66213;SHT31;53015;50.046;8.238;2022-08-05T00:40:24;23.53;77.66
66213;SHT31;53015;50.046;8.238;2022-08-05T00:42:50;23.26;79.73
66213;SHT31;53015;50.046;8.238;2022-08-05T00:45:15;23.10;80.08
66213;SHT31;53015;50.046;8.238;2022-08-05T00:47:41;23.00;80.73
66213;SHT31;53015;50.046;8.238;2022-08-05T00:50:07;23.00;79.81
66213;SHT31;53015;50.046;8.238;2022-08-05T00:52:33;23.04;78.42
66213;SHT31;53015;50.046;8.238;2022-08-05T00:54:58;22.99;79.27
66213;SHT31;53015;50.046;8.238;2022-08-05T00:57:24;22.92;80.09
66213;SHT31;53015;50.046;8.238;2022-08-05T00:59:50;22.79;80.16
66213;SHT31;53015;50.046;8.238;2022-08-05T01:02:16;22.78;81.13
66213;SHT31;53015;50.046;8.238;2022-08-05T01:04:41;22.69;81.59
66213;SHT31;53015;50.046;8.238;2022-08-05T01:07:06;22.66;82.05
66213;SHT31;53015;50.046;8.238;2022-08-05T01:09:32;22.68;81.70
66213;SHT31;53015;50.046;8.238;2022-08-05T01:12:02;22.68;81.83
66213;SHT31;53015;50.046;8.238;2022-08-05T01:14:40;22.58;83.91
66213;SHT31;53015;50.046;8.238;2022-08-05T01:20:11;22.34;83.92
66213;SHT31;53015;50.046;8.238;2022-08-05T01:23:05;22.29;87.31
66213;SHT31;53015;50.046;8.238;2022-08-05T01:31:08;22.22;86.61
66213;SHT31;53015;50.046;8.238;2022-08-05T01:33:41;22.09;87.93
66213;SHT31;53015;50.046;8.238;2022-08-05T01:36:08;22.17;86.53
66213;SHT31;53015;50.046;8.238;2022-08-05T01:38:35;22.20;88.01
66213;SHT31;53015;50.046;8.238;2022-08-05T01:41:02;22.14;88.60
66213;SHT31;53015;50.046;8.238;2022-08-05T01:43:30;22.13;87.24
66213;SHT31;53015;50.046;8.238;2022-08-05T01:45:56;22.10;87.11
66213;SHT31;53015;50.046;8.238;2022-08-05T01:48:25;22.14;87.13
66213;SHT31;53015;50.046;8.238;2022-08-05T01:50:52;22.16;86.22
66213;SHT31;53015;50.046;8.238;2022-08-05T01:53:20;22.10;86.62
66213;SHT31;53015;50.046;8.238;2022-08-05T01:55:48;22.02;87.25
66213;SHT31;53015;50.046;8.238;2022-08-05T01:58:15;21.99;87.08
66213;SHT31;53015;50.046;8.238;2022-08-05T02:00:44;21.99;86.71
66213;SHT31;53015;50.046;8.238;2022-08-05T02:03:23;21.99;86.41
66213;SHT31;53015;50.046;8.238;2022-08-05T02:05:49;21.94;86.17
66213;SHT31;53015;50.046;8.238;2022-08-05T02:08:16;22.00;86.97
66213;SHT31;53015;50.046;8.238;2022-08-05T02:10:44;22.10;87.68
66213;SHT31;53015;50.046;8.238;2022-08-05T02:13:23;22.11;89.29
66213;SHT31;53015;50.046;8.238;2022-08-05T02:15:53;22.06;89.59
66213;SHT31;53015;50.046;8.238;2022-08-05T02:18:32;22.03;90.25
66213;SHT31;53015;50.046;8.238;2022-08-05T02:21:12;22.04;90.08
66213;SHT31;53015;50.046;8.238;2022-08-05T02:23:40;22.06;90.34
66213;SHT31;53015;50.046;8.238;2022-08-05T02:26:08;22.07;90.29
66213;SHT31;53015;50.046;8.238;2022-08-05T02:28:37;22.07;89.83
66213;SHT31;53015;50.046;8.238;2022-08-05T02:31:14;22.09;90.69
66213;SHT31;53015;50.046;8.238;2022-08-05T02:33:50;21.96;91.24
66213;SHT31;53015;50.046;8.238;2022-08-05T02:36:18;21.97;90.99
66213;SHT31;53015;50.046;8.238;2022-08-05T02:38:46;21.93;90.32
66213;SHT31;53015;50.046;8.238;2022-08-05T02:41:15;21.99;90.03
66213;SHT31;53015;50.046;8.238;2022-08-05T02:43:42;21.93;90.18
66213;SHT31;53015;50.046;8.238;2022-08-05T02:46:08;22.02;88.26
66213;SHT31;53015;50.046;8.238;2022-08-05T02:48:35;22.00;87.70
66213;SHT31;53015;50.046;8.238;2022-08-05T02:51:01;22.06;87.51
66213;SHT31;53015;50.046;8.238;2022-08-05T02:53:29;22.14;86.82
66213;SHT31;53015;50.046;8.238;2022-08-05T02:55:55;22.07;88.05
66213;SHT31;53015;50.046;8.238;2022-08-05T02:58:22;22.21;86.97
66213;SHT31;53015;50.046;8.238;2022-08-05T03:00:48;22.24;87.65
66213;SHT31;53015;50.046;8.238;2022-08-05T03:03:19;22.21;87.56
66213;SHT31;53015;50.046;8.238;2022-08-05T03:05:49;22.25;88.65
66213;SHT31;53015;50.046;8.238;2022-08-05T03:08:15;22.20;88.01
66213;SHT31;53015;50.046;8.238;2022-08-05T03:10:42;22.21;88.61
66213;SHT31;53015;50.046;8.238;2022-08-05T03:13:14;22.18;89.12
66213;SHT31;53015;50.046;8.238;2022-08-05T03:15:41;22.18;88.75
66213;SHT31;53015;50.046;8.238;2022-08-05T03:18:06;22.16;87.82
66213;SHT31;53015;50.046;8.238;2022-08-05T03:20:31;22.13;88.79
66213;SHT31;53015;50.046;8.238;2022-08-05T03:22:57;22.17;88.98
66213;SHT31;53015;50.046;8.238;2022-08-05T03:25:23;22.10;90.33
66213;SHT31;53015;50.046;8.238;2022-08-05T03:27:50;22.07;90.53
66213;SHT31;53015;50.046;8.238;2022-08-05T03:30:15;22.07;91.27
66213;SHT31;53015;50.046;8.238;2022-08-05T03:32:41;22.02;89.52
66213;SHT31;53015;50.046;8.238;2022-08-05T03:35:07;22.04;90.92
66213;SHT31;53015;50.046;8.238;2022-08-05T03:37:33;22.04;90.31
66213;SHT31;53015;50.046;8.238;2022-08-05T03:39:59;22.09;90.40
66213;SHT31;53015;50.046;8.238;2022-08-05T03:42:24;22.09;90.42
66213;SHT31;53015;50.046;8.238;2022-08-05T03:44:50;22.07;90.20
66213;SHT31;53015;50.046;8.238;2022-08-05T03:47:16;22.14;90.52
66213;SHT31;53015;50.046;8.238;2022-08-05T03:49:41;22.20;89.37
66213;SHT31;53015;50.046;8.238;2022-08-05T03:52:09;22.18;88.43
66213;SHT31;53015;50.046;8.238;2022-08-05T03:54:44;22.20;89.77
66213;SHT31;53015;50.046;8.238;2022-08-05T03:57:13;22.13;89.24
66213;SHT31;53015;50.046;8.238;2022-08-05T03:59:45;22.09;89.05
66213;SHT31;53015;50.046;8.238;2022-08-05T04:02:14;22.09;89.05
66213;SHT31;53015;50.046;8.238;2022-08-05T04:04:41;22.27;84.30
66213;SHT31;53015;50.046;8.238;2022-08-05T04:07:07;22.29;86.21
66213;SHT31;53015;50.046;8.238;2022-08-05T04:09:34;22.31;84.56
66213;SHT31;53015;50.046;8.238;2022-08-05T04:12:00;22.33;84.95
66213;SHT31;53015;50.046;8.238;2022-08-05T04:14:26;22.43;82.33
66213;SHT31;53015;50.046;8.238;2022-08-05T04:16:53;22.33;83.96
66213;SHT31;53015;50.046;8.238;2022-08-05T04:19:18;22.45;84.48
66213;SHT31;53015;50.046;8.238;2022-08-05T04:21:44;22.34;85.20
66213;SHT31;53015;50.046;8.238;2022-08-05T04:24:10;22.33;85.49
66213;SHT31;53015;50.046;8.238;2022-08-05T04:26:36;22.36;83.92
66213;SHT31;53015;50.046;8.238;2022-08-05T04:29:01;22.41;83.46
66213;SHT31;53015;50.046;8.238;2022-08-05T04:31:27;22.47;83.92
66213;SHT31;53015;50.046;8.238;2022-08-05T04:33:53;22.43;85.67
66213;SHT31;53015;50.046;8.238;2022-08-05T04:36:18;22.30;84.86
66213;SHT31;53015;50.046;8.238;2022-08-05T04:38:46;22.27;84.56
66213;SHT31;53015;50.046;8.238;2022-08-05T04:41:11;22.22;84.57
66213;SHT31;53015;50.046;8.238;2022-08-05T04:43:37;22.29;85.77
66213;SHT31;53015;50.046;8.238;2022-08-05T04:46:03;22.18;85.80
66213;SHT31;53015;50.046;8.238;2022-08-05T04:48:29;22.27;84.99
66213;SHT31;53015;50.046;8.238;2022-08-05T04:50:54;22.58;80.65
66213;SHT31;53015;50.046;8.238;2022-08-05T04:53:20;22.49;83.52
66213;SHT31;53015;50.046;8.238;2022-08-05T04:55:45;22.47;84.54
66213;SHT31;53015;50.046;8.238;2022-08-05T04:58:13;22.52;81.57
66213;SHT31;53015;50.046;8.238;2022-08-05T05:00:39;22.59;83.64
66213;SHT31;53015;50.046;8.238;2022-08-05T05:03:06;22.57;82.74
66213;SHT31;53015;50.046;8.238;2022-08-05T05:05:32;22.49;84.50
66213;SHT31;53015;50.046;8.238;2022-08-05T05:08:08;22.51;82.65
66213;SHT31;53015;50.046;8.238;2022-08-05T05:10:39;22.52;81.61
66213;SHT31;53015;50.046;8.238;2022-08-05T05:13:09;22.55;81.44
66213;SHT31;53015;50.046;8.238;2022-08-05T05:15:35;22.68;80.72
66213;SHT31;53015;50.046;8.238;2022-08-05T05:18:00;22.59;81.06
66213;SHT31;53015;50.046;8.238;2022-08-05T05:20:26;22.57;83.33
66213;SHT31;53015;50.046;8.238;2022-08-05T05:22:51;22.62;82.20
66213;SHT31;53015;50.046;8.238;2022-08-05T05:25:17;22.54;84.56
66213;SHT31;53015;50.046;8.238;2022-08-05T05:27:43;22.49;83.02
66213;SHT31;53015;50.046;8.238;2022-08-05T05:30:09;22.58;84.02
66213;SHT31;53015;50.046;8.238;2022-08-05T05:32:34;22.54;85.17
66213;SHT31;53015;50.046;8.238;2022-08-05T05:35:00;22.58;85.68
66213;SHT31;53015;50.046;8.238;2022-08-05T05:37:25;22.48;85.35
66213;SHT31;53015;50.046;8.238;2022-08-05T05:39:50;22.41;84.52
66213;SHT31;53015;50.046;8.238;2022-08-05T05:42:16;22.30;84.02
66213;SHT31;53015;50.046;8.238;2022-08-05T05:44:41;22.36;83.71
66213;SHT31;53015;50.046;8.238;2022-08-05T05:47:07;22.40;83.72
66213;SHT31;53015;50.046;8.238;2022-08-05T05:49:32;22.51;82.99
66213;SHT31;53015;50.046;8.238;2022-08-05T05:51:58;22.55;84.48
66213;SHT31;53015;50.046;8.238;2022-08-05T05:54:25;22.68;83.96
66213;SHT31;53015;50.046;8.238;2022-08-05T05:56:50;22.75;84.08
66213;SHT31;53015;50.046;8.238;2022-08-05T05:59:16;22.65;85.79
66213;SHT31;53015;50.046;8.238;2022-08-05T06:01:41;22.71;84.91
66213;SHT31;53015;50.046;8.238;2022-08-05T06:04:10;22.65;84.25
66213;SHT31;53015;50.046;8.238;2022-08-05T06:06:35;22.69;83.70
66213;SHT31;53015;50.046;8.238;2022-08-05T06:09:02;22.58;84.59
66213;SHT31;53015;50.046;8.238;2022-08-05T06:11:28;22.51;85.28
66213;SHT31;53015;50.046;8.238;2022-08-05T06:13:53;22.47;86.01
66213;SHT31;53015;50.046;8.238;2022-08-05T06:16:19;22.51;85.51
66213;SHT31;53015;50.046;8.238;2022-08-05T06:18:45;22.51;85.82
66213;SHT31;53015;50.046;8.238;2022-08-05T06:21:10;22.51;82.67
66213;SHT31;53015;50.046;8.238;2022-08-05T06:23:35;22.64;83.28
66213;SHT31;53015;50.046;8.238;2022-08-05T06:26:01;22.65;83.62
66213;SHT31;53015;50.046;8.238;2022-08-05T06:28:27;22.65;80.67
66213;SHT31;53015;50.046;8.238;2022-08-05T06:30:52;22.81;81.96
66213;SHT31;53015;50.046;8.238;2022-08-05T06:33:18;22.89;83.88
66213;SHT31;53015;50.046;8.238;2022-08-05T06:35:43;22.99;84.87
66213;SHT31;53015;50.046;8.238;2022-08-05T06:38:09;22.99;84.62
66213;SHT31;53015;50.046;8.238;2022-08-05T06:40:34;23.14;84.68
66213;SHT31;53015;50.046;8.238;2022-08-05T06:42:59;23.14;83.02
66213;SHT31;53015;50.046;8.238;2022-08-05T06:45:25;23.13;82.97
66213;SHT31;53015;50.046;8.238;2022-08-05T06:47:50;23.14;82.34
66213;SHT31;53015;50.046;8.238;2022-08-05T06:50:17;23.34;82.33
66213;SHT31;53015;50.046;8.238;2022-08-05T06:52:42;23.53;83.54
66213;SHT31;53015;50.046;8.238;2022-08-05T06:55:08;23.61;82.13
66213;SHT31;53015;50.046;8.238;2022-08-05T06:57:33;23.67;81.80
66213;SHT31;53015;50.046;8.238;2022-08-05T06:59:58;23.64;80.88
66213;SHT31;53015;50.046;8.238;2022-08-05T07:02:24;23.68;81.92
66213;SHT31;53015;50.046;8.238;2022-08-05T07:04:49;23.67;81.55
66213;SHT31;53015;50.046;8.238;2022-08-05T07:07:15;23.64;81.48
66213;SHT31;53015;50.046;8.238;2022-08-05T07:09:40;23.67;80.81
66213;SHT31;53015;50.046;8.238;2022-08-05T07:12:06;23.81;81.58
66213;SHT31;53015;50.046;8.238;2022-08-05T07:14:31;23.88;80.85
66213;SHT31;53015;50.046;8.238;2022-08-05T07:17:15;23.98;80.94
66213;SHT31;53015;50.046;8.238;2022-08-05T07:19:40;24.06;80.09
66213;SHT31;53015;50.046;8.238;2022-08-05T07:22:06;24.16;78.44
66213;SHT31;53015;50.046;8.238;2022-08-05T07:24:31;24.39;78.63
66213;SHT31;53015;50.046;8.238;2022-08-05T07:26:57;24.37;78.89
66213;SHT31;53015;50.046;8.238;2022-08-05T07:29:22;24.44;78.83
66213;SHT31;53015;50.046;8.238;2022-08-05T07:31:47;24.60;79.12
66213;SHT31;53015;50.046;8.238;2022-08-05T07:34:13;24.65;78.03
66213;SHT31;53015;50.046;8.238;2022-08-05T07:36:38;24.71;76.55
66213;SHT31;53015;50.046;8.238;2022-08-05T07:39:06;24.67;77.62
66213;SHT31;53015;50.046;8.238;2022-08-05T07:41:31;24.65;78.30
66213;SHT31;53015;50.046;8.238;2022-08-05T07:43:58;24.68;78.23
66213;SHT31;53015;50.046;8.238;2022-08-05T07:46:28;24.63;76.02
66213;SHT31;53015;50.046;8.238;2022-08-05T07:48:55;24.72;75.82
66213;SHT31;53015;50.046;8.238;2022-08-05T07:51:21;24.64;76.17
66213;SHT31;53015;50.046;8.238;2022-08-05T07:53:46;24.68;77.11
66213;SHT31;53015;50.046;8.238;2022-08-05T07:56:11;24.72;76.53
66213;SHT31;53015;50.046;8.238;2022-08-05T07:58:37;24.78;74.63
66213;SHT31;53015;50.046;8.238;2022-08-05T08:01:02;24.87;75.33
66213;SHT31;53015;50.046;8.238;2022-08-05T08:03:28;24.88;75.42
66213;SHT31;53015;50.046;8.238;2022-08-05T08:05:53;24.94;75.42
66213;SHT31;53015;50.046;8.238;2022-08-05T08:08:19;24.96;74.42
66213;SHT31;53015;50.046;8.238;2022-08-05T08:10:44;25.08;75.85
66213;SHT31;53015;50.046;8.238;2022-08-05T08:13:10;25.11;75.25
66213;SHT31;53015;50.046;8.238;2022-08-05T08:15:35;25.12;74.61
66213;SHT31;53015;50.046;8.238;2022-08-05T08:18:00;25.20;73.32
66213;SHT31;53015;50.046;8.238;2022-08-05T08:20:26;25.23;71.40
66213;SHT31;53015;50.046;8.238;2022-08-05T08:22:52;25.37;72.25
66213;SHT31;53015;50.046;8.238;2022-08-05T08:25:18;25.39;69.58
66213;SHT31;53015;50.046;8.238;2022-08-05T08:27:44;25.53;71.14
66213;SHT31;53015;50.046;8.238;2022-08-05T08:30:09;25.59;72.26
66213;SHT31;53015;50.046;8.238;2022-08-05T08:32:38;25.63;71.04
66213;SHT31;53015;50.046;8.238;2022-08-05T08:35:04;25.50;67.52
66213;SHT31;53015;50.046;8.238;2022-08-05T08:37:29;25.44;67.86
66213;SHT31;53015;50.046;8.238;2022-08-05T08:39:55;25.40;66.49
66213;SHT31;53015;50.046;8.238;2022-08-05T08:42:21;25.47;65.01
66213;SHT31;53015;50.046;8.238;2022-08-05T08:44:47;25.56;65.46
66213;SHT31;53015;50.046;8.238;2022-08-05T08:47:14;25.53;64.77
66213;SHT31;53015;50.046;8.238;2022-08-05T08:49:43;25.57;65.53
66213;SHT31;53015;50.046;8.238;2022-08-05T08:52:17;25.64;67.31
66213;SHT31;53015;50.046;8.238;2022-08-05T08:54:44;25.54;65.37
66213;SHT31;53015;50.046;8.238;2022-08-05T08:57:12;25.33;65.29
66213;SHT31;53015;50.046;8.238;2022-08-05T08:59:38;25.39;65.22
66213;SHT31;53015;50.046;8.238;2022-08-05T09:02:04;25.18;65.74
66213;SHT31;53015;50.046;8.238;2022-08-05T09:04:34;25.23;66.05
66213;SHT31;53015;50.046;8.238;2022-08-05T09:07:05;25.39;66.95
66213;SHT31;53015;50.046;8.238;2022-08-05T09:09:35;25.50;66.99
66213;SHT31;53015;50.046;8.238;2022-08-05T09:12:04;25.49;65.81
66213;SHT31;53015;50.046;8.238;2022-08-05T09:14:33;25.59;67.73
66213;SHT31;53015;50.046;8.238;2022-08-05T09:17:00;25.66;67.69
66213;SHT31;53015;50.046;8.238;2022-08-05T09:19:26;25.71;65.91
66213;SHT31;53015;50.046;8.238;2022-08-05T09:21:51;25.49;65.38
66213;SHT31;53015;50.046;8.238;2022-08-05T09:24:16;25.36;66.55
66213;SHT31;53015;50.046;8.238;2022-08-05T09:26:49;25.39;65.97
66213;SHT31;53015;50.046;8.238;2022-08-05T09:29:14;25.42;65.94
66213;SHT31;53015;50.046;8.238;2022-08-05T09:31:40;25.49;64.28
66213;SHT31;53015;50.046;8.238;2022-08-05T09:34:09;25.61;63.19
66213;SHT31;53015;50.046;8.238;2022-08-05T09:36:42;25.64;63.70
66213;SHT31;53015;50.046;8.238;2022-08-05T09:39:10;25.74;62.87
66213;SHT31;53015;50.046;8.238;2022-08-05T09:42:00;25.80;62.26
66213;SHT31;53015;50.046;8.238;2022-08-05T09:44:40;25.69;62.54
66213;SHT31;53015;50.046;8.238;2022-08-05T09:49:40;25.60;62.79
66213;SHT31;53015;50.046;8.238;2022-08-05T09:54:54;25.70;63.52
66213;SHT31;53015;50.046;8.238;2022-08-05T10:00:11;25.67;62.09
66213;SHT31;53015;50.046;8.238;2022-08-05T10:02:38;25.50;63.38
66213;SHT31;53015;50.046;8.238;2022-08-05T10:05:11;25.56;64.96
66213;SHT31;53015;50.046;8.238;2022-08-05T10:07:47;25.69;65.07
66213;SHT31;53015;50.046;8.238;2022-08-05T10:10:14;25.85;65.47
66213;SHT31;53015;50.046;8.238;2022-08-05T10:12:46;25.98;66.08
66213;SHT31;53015;50.046;8.238;2022-08-05T10:15:20;26.09;66.15
66213;SHT31;53015;50.046;8.238;2022-08-05T10:20:28;26.15;64.68
66213;SHT31;53015;50.046;8.238;2022-08-05T10:22:54;26.12;65.56
66213;SHT31;53015;50.046;8.238;2022-08-05T10:25:20;25.98;65.37
66213;SHT31;53015;50.046;8.238;2022-08-05T10:27:46;26.05;65.81
66213;SHT31;53015;50.046;8.238;2022-08-05T10:30:11;26.11;63.93
66213;SHT31;53015;50.046;8.238;2022-08-05T10:32:37;26.22;63.98
66213;SHT31;53015;50.046;8.238;2022-08-05T10:35:03;26.43;64.44
66213;SHT31;53015;50.046;8.238;2022-08-05T10:37:29;26.39;65.07
66213;SHT31;53015;50.046;8.238;2022-08-05T10:39:57;26.50;65.15
66213;SHT31;53015;50.046;8.238;2022-08-05T10:42:25;26.52;64.01
66213;SHT31;53015;50.046;8.238;2022-08-05T10:44:53;26.52;63.59
66213;SHT31;53015;50.046;8.238;2022-08-05T10:47:20;26.37;64.01
66213;SHT31;53015;50.046;8.238;2022-08-05T10:50:07;26.33;65.06
66213;SHT31;53015;50.046;8.238;2022-08-05T10:53:03;26.26;65.33
66213;SHT31;53015;50.046;8.238;2022-08-05T10:55:28;26.33;65.24
66213;SHT31;53015;50.046;8.238;2022-08-05T10:58:07;26.06;64.92
66213;SHT31;53015;50.046;8.238;2022-08-05T11:00:33;25.90;65.28
66213;SHT31;53015;50.046;8.238;2022-08-05T11:05:31;25.98;66.04
66213;SHT31;53015;50.046;8.238;2022-08-05T11:07:58;25.97;67.37
66213;SHT31;53015;50.046;8.238;2022-08-05T11:10:25;26.08;66.77
66213;SHT31;53015;50.046;8.238;2022-08-05T11:12:51;26.19;65.85
66213;SHT31;53015;50.046;8.238;2022-08-05T11:15:27;26.35;66.01
66213;SHT31;53015;50.046;8.238;2022-08-05T11:18:22;26.60;65.87
66213;SHT31;53015;50.046;8.238;2022-08-05T11:20:49;26.53;66.36
66213;SHT31;53015;50.046;8.238;2022-08-05T11:23:26;26.87;65.24
66213;SHT31;53015;50.046;8.238;2022-08-05T11:33:27;27.08;63.36
66213;SHT31;53015;50.046;8.238;2022-08-05T11:35:59;27.16;63.23
66213;SHT31;53015;50.046;8.238;2022-08-05T11:41:04;27.56;61.84
66213;SHT31;53015;50.046;8.238;2022-08-05T11:43:30;27.66;62.08
66213;SHT31;53015;50.046;8.238;2022-08-05T11:45:55;27.63;61.14
66213;SHT31;53015;50.046;8.238;2022-08-05T11:48:21;28.00;60.44
66213;SHT31;53015;50.046;8.238;2022-08-05T11:50:49;27.69;60.05
66213;SHT31;53015;50.046;8.238;2022-08-05T11:53:15;27.63;59.82
66213;SHT31;53015;50.046;8.238;2022-08-05T11:55:55;27.79;60.08
66213;SHT31;53015;50.046;8.238;2022-08-05T11:58:33;28.21;61.11
66213;SHT31;53015;50.046;8.238;2022-08-05T12:01:12;28.22;60.84
66213;SHT31;53015;50.046;8.238;2022-08-05T12:06:08;27.86;60.76
66213;SHT31;53015;50.046;8.238;2022-08-05T12:08:40;27.59;61.31
66213;SHT31;53015;50.046;8.238;2022-08-05T12:11:07;27.43;62.06
66213;SHT31;53015;50.046;8.238;2022-08-05T12:13:33;27.73;61.52
66213;SHT31;53015;50.046;8.238;2022-08-05T12:15:59;27.67;61.10
66213;SHT31;53015;50.046;8.238;2022-08-05T12:18:32;27.56;61.31
66213;SHT31;53015;50.046;8.238;2022-08-05T12:21:16;27.48;60.76
66213;SHT31;53015;50.046;8.238;2022-08-05T12:24:01;27.71;60.60
66213;SHT31;53015;50.046;8.238;2022-08-05T12:28:56;28.01;59.71
66213;SHT31;53015;50.046;8.238;2022-08-05T12:31:22;27.90;59.07
66213;SHT31;53015;50.046;8.238;2022-08-05T12:33:47;27.71;58.53
66213;SHT31;53015;50.046;8.238;2022-08-05T12:36:14;27.63;59.17
66213;SHT31;53015;50.046;8.238;2022-08-05T12:38:39;27.59;58.38
66213;SHT31;53015;50.046;8.238;2022-08-05T12:41:12;27.60;58.33
66213;SHT31;53015;50.046;8.238;2022-08-05T12:43:55;27.49;58.79
66213;SHT31;53015;50.046;8.238;2022-08-05T12:46:28;27.18;59.48
66213;SHT31;53015;50.046;8.238;2022-08-05T12:48:58;27.28;59.88
66213;SHT31;53015;50.046;8.238;2022-08-05T12:51:24;27.34;60.90
66213;SHT31;53015;50.046;8.238;2022-08-05T12:53:57;27.11;60.09
66213;SHT31;53015;50.046;8.238;2022-08-05T12:56:23;27.11;59.52
66213;SHT31;53015;50.046;8.238;2022-08-05T12:59:15;27.22;59.05
66213;SHT31;53015;50.046;8.238;2022-08-05T13:01:43;26.73;64.29
66213;SHT31;53015;50.046;8.238;2022-08-05T13:04:09;26.70;64.52
66213;SHT31;53015;50.046;8.238;2022-08-05T13:06:37;26.60;64.26
66213;SHT31;53015;50.046;8.238;2022-08-05T13:09:08;26.52;65.94
66213;SHT31;53015;50.046;8.238;2022-08-05T13:11:37;26.35;65.80
66213;SHT31;53015;50.046;8.238;2022-08-05T13:14:15;26.25;69.15
66213;SHT31;53015;50.046;8.238;2022-08-05T13:19:11;25.73;66.03
66213;SHT31;53015;50.046;8.238;2022-08-05T13:21:37;25.43;66.53
66213;SHT31;53015;50.046;8.238;2022-08-05T13:24:02;25.16;65.92
66213;SHT31;53015;50.046;8.238;2022-08-05T13:26:28;24.94;67.24
66213;SHT31;53015;50.046;8.238;2022-08-05T13:28:54;24.85;67.92
66213;SHT31;53015;50.046;8.238;2022-08-05T13:31:20;24.43;73.16
66213;SHT31;53015;50.046;8.238;2022-08-05T13:33:45;23.33;78.71
66213;SHT31;53015;50.046;8.238;2022-08-05T13:36:10;23.26;78.30
66213;SHT31;53015;50.046;8.238;2022-08-05T13:38:37;23.28;78.80
66213;SHT31;53015;50.046;8.238;2022-08-05T13:41:02;23.64;78.05
66213;SHT31;53015;50.046;8.238;2022-08-05T13:43:28;24.16;78.29
66213;SHT31;53015;50.046;8.238;2022-08-05T13:45:53;24.39;76.61
66213;SHT31;53015;50.046;8.238;2022-08-05T13:48:19;24.32;74.26
66213;SHT31;53015;50.046;8.238;2022-08-05T13:50:44;24.22;74.31
66213;SHT31;53015;50.046;8.238;2022-08-05T13:53:09;24.34;75.22
66213;SHT31;53015;50.046;8.238;2022-08-05T13:55:35;24.20;73.50
66213;SHT31;53015;50.046;8.238;2022-08-05T13:58:00;24.26;72.90
66213;SHT31;53015;50.046;8.238;2022-08-05T14:00:26;24.16;71.99
66213;SHT31;53015;50.046;8.238;2022-08-05T14:02:51;24.23;70.73
66213;SHT31;53015;50.046;8.238;2022-08-05T14:05:16;24.30;71.09
66213;SHT31;53015;50.046;8.238;2022-08-05T14:07:43;24.27;71.85
66213;SHT31;53015;50.046;8.238;2022-08-05T14:10:14;24.34;72.64
66213;SHT31;53015;50.046;8.238;2022-08-05T14:12:41;24.08;71.49
66213;SHT31;53015;50.046;8.238;2022-08-05T14:15:07;23.92;73.29
66213;SHT31;53015;50.046;8.238;2022-08-05T14:17:33;23.68;72.52
66213;SHT31;53015;50.046;8.238;2022-08-05T14:19:58;23.47;72.43
66213;SHT31;53015;50.046;8.238;2022-08-05T14:22:24;23.19;73.82
66213;SHT31;53015;50.046;8.238;2022-08-05T14:24:50;22.98;72.15
66213;SHT31;53015;50.046;8.238;2022-08-05T14:27:16;23.13;71.83
66213;SHT31;53015;50.046;8.238;2022-08-05T14:29:41;22.99;71.70
66213;SHT31;53015;50.046;8.238;2022-08-05T14:32:06;22.95;71.99
66213;SHT31;53015;50.046;8.238;2022-08-05T14:34:32;22.88;70.89
66213;SHT31;53015;50.046;8.238;2022-08-05T14:36:58;22.68;72.22
66213;SHT31;53015;50.046;8.238;2022-08-05T14:39:23;22.59;72.58
66213;SHT31;53015;50.046;8.238;2022-08-05T14:41:49;22.43;71.50
66213;SHT31;53015;50.046;8.238;2022-08-05T14:44:15;22.30;72.12
66213;SHT31;53015;50.046;8.238;2022-08-05T14:46:40;22.33;71.71
66213;SHT31;53015;50.046;8.238;2022-08-05T14:49:06;22.40;71.24
66213;SHT31;53015;50.046;8.238;2022-08-05T14:51:32;22.51;71.14
66213;SHT31;53015;50.046;8.238;2022-08-05T14:53:58;22.61;71.18
66213;SHT31;53015;50.046;8.238;2022-08-05T14:56:24;22.69;70.54
66213;SHT31;53015;50.046;8.238;2022-08-05T14:58:49;22.64;69.69
66213;SHT31;53015;50.046;8.238;2022-08-05T15:01:16;22.61;69.55
66213;SHT31;53015;50.046;8.238;2022-08-05T15:03:42;22.40;69.99
66213;SHT31;53015;50.046;8.238;2022-08-05T15:06:08;22.31;69.90
66213;SHT31;53015;50.046;8.238;2022-08-05T15:08:33;22.44;70.19
66213;SHT31;53015;50.046;8.238;2022-08-05T15:10:58;22.58;70.29
66213;SHT31;53015;50.046;8.238;2022-08-05T15:13:24;22.55;69.93
66213;SHT31;53015;50.046;8.238;2022-08-05T15:15:49;22.61;69.69
66213;SHT31;53015;50.046;8.238;2022-08-05T15:18:15;22.55;69.90
66213;SHT31;53015;50.046;8.238;2022-08-05T15:20:40;22.59;70.18
66213;SHT31;53015;50.046;8.238;2022-08-05T15:23:07;22.95;68.32
66213;SHT31;53015;50.046;8.238;2022-08-05T15:25:33;23.14;68.44
66213;SHT31;53015;50.046;8.238;2022-08-05T15:27:59;23.10;67.76
66213;SHT31;53015;50.046;8.238;2022-08-05T15:30:25;23.31;67.77
66213;SHT31;53015;50.046;8.238;2022-08-05T15:32:51;23.06;67.29
66213;SHT31;53015;50.046;8.238;2022-08-05T15:35:17;23.14;67.67
66213;SHT31;53015;50.046;8.238;2022-08-05T15:37:42;23.04;67.64
66213;SHT31;53015;50.046;8.238;2022-08-05T15:40:08;23.10;67.19
66213;SHT31;53015;50.046;8.238;2022-08-05T15:42:34;23.17;67.65
66213;SHT31;53015;50.046;8.238;2022-08-05T15:45:00;23.23;66.98
66213;SHT31;53015;50.046;8.238;2022-08-05T15:47:25;23.43;66.25
66213;SHT31;53015;50.046;8.238;2022-08-05T15:49:52;23.72;65.36
66213;SHT31;53015;50.046;8.238;2022-08-05T15:52:18;24.08;63.49
66213;SHT31;53015;50.046;8.238;2022-08-05T15:54:44;24.10;63.74
66213;SHT31;53015;50.046;8.238;2022-08-05T15:57:10;24.20;63.50
66213;SHT31;53015;50.046;8.238;2022-08-05T15:59:36;24.19;63.03
66213;SHT31;53015;50.046;8.238;2022-08-05T16:02:01;24.33;62.86
66213;SHT31;53015;50.046;8.238;2022-08-05T16:04:26;24.63;61.89
66213;SHT31;53015;50.046;8.238;2022-08-05T16:06:53;24.41;61.34
66213;SHT31;53015;50.046;8.238;2022-08-05T16:09:19;24.13;61.89
66213;SHT31;53015;50.046;8.238;2022-08-05T16:11:45;23.89;63.07